Ozgur Aksoy — 9HA2587 — position and weather

sailwx.info

Track history (hours):
 
Tides and Currents Weather Stations Pressure Air Temp Water Temp Dewpoint Dewpoint Depression Visibility Wind Speed Wind Dir Waves Ship Positions

Ozgur Aksoy

Last reported at 2014-Dec-22 03:03 UTC. Time now 2014-Dec-22 17:46 UTC.
Position N 38°46' W 070°56'.

Length 196 m; draft 11.9 m.

Type: Cargo ship. MMSI: 248950000.

Date/timePositionNaut miles runAvg speedWind from/ knotsBaromVisibWave heightAir tempDewpointWater temp
2014-Dec-22 03:03N 38°46' W 070°56'813.8
2014-Dec-22 02:30N 38°51' W 070°49'1414.0
2014-Dec-22 01:30N 39°02' W 070°38'7013.6
2014-Dec-21 20:21N 39°54' W 069°38'156 9.8
2014-Dec-21 04:26N 42°22' W 070°47'8 7.9
2014-Dec-21 03:28N 42°20' W 070°57'5 0.1
2014-Dec-19 03:08N 42°23' W 071°02'5 0.1
2014-Dec-17 10:33N 42°21' W 070°56'7 7.0
2014-Dec-17 09:32N 42°24' W 070°47'2 2.0
2014-Dec-17 08:24N 42°25' W 070°44'0 0.0
2014-Dec-17 07:30N 42°25' W 070°44'0 0.0
2014-Dec-17 06:30N 42°25' W 070°44'0 0.0
2014-Dec-17 05:06N 42°25' W 070°44'0 0.1
2014-Dec-17 04:30N 42°25' W 070°44'0 0.0
2014-Dec-17 03:30N 42°25' W 070°44'0 0.0
2014-Dec-17 02:33N 42°25' W 070°44'1 0.7
2014-Dec-17 01:33N 42°25' W 070°44'10 9.6
2014-Dec-17 00:33N 42°22' W 070°31'1812.1
2014-Dec-16 23:04N 42°20' W 070°07'711.7
2014-Dec-16 22:27N 42°18' W 069°57'1512.4
2014-Dec-16 21:16N 42°05' W 069°50'1012.8
2014-Dec-16 20:31N 41°56' W 069°44'1412.6
2014-Dec-16 19:23N 41°44' W 069°35'1112.6
2014-Dec-16 18:33N 41°34' W 069°29'1212.5
2014-Dec-16 17:33N 41°23' W 069°22'1212.3
2014-Dec-16 16:33N 41°11' W 069°16'1211.7
2014-Dec-16 15:31N 41°01' W 069°09'1111.5
2014-Dec-16 14:32N 40°51' W 069°01'1611.4
2014-Dec-16 13:09N 40°36' W 068°55'1012.1
2014-Dec-16 12:18N 40°26' W 068°56'912.3
2014-Dec-16 11:33N 40°16' W 068°56'1712.6
2014-Dec-16 10:15N 40°00' W 068°59'913.3
2014-Dec-16 09:33N 39°51' W 069°01'1414.1
2014-Dec-16 08:33N 39°37' W 069°05'23211.9
2014-Dec-15 13:05N 35°50' W 070°05'  
Track history (hours):
 
Tides and Currents Weather Stations Pressure Air Temp Water Temp Dewpoint Dewpoint Depression Visibility Wind Speed Wind Dir Waves Ship Positions

Ozgur Aksoy

Last reported at 2014-Dec-22 03:03 UTC. Time now 2014-Dec-22 17:46 UTC.
Position N 38°46' W 070°56'.

Length 196 m; draft 11.9 m.

Type: Cargo ship. MMSI: 248950000.

Date/timePositionNaut miles runAvg speedWind from/ knotsBaromVisibWave heightAir tempDewpointWater temp
2014-Dec-22 03:03N 38°46' W 070°56'813.8
2014-Dec-22 02:30N 38°51' W 070°49'1414.0
2014-Dec-22 01:30N 39°02' W 070°38'7013.6
2014-Dec-21 20:21N 39°54' W 069°38'156 9.8
2014-Dec-21 04:26N 42°22' W 070°47'8 7.9
2014-Dec-21 03:28N 42°20' W 070°57'5 0.1
2014-Dec-19 03:08N 42°23' W 071°02'5 0.1
2014-Dec-17 10:33N 42°21' W 070°56'7 7.0
2014-Dec-17 09:32N 42°24' W 070°47'2 2.0
2014-Dec-17 08:24N 42°25' W 070°44'0 0.0
2014-Dec-17 07:30N 42°25' W 070°44'0 0.0
2014-Dec-17 06:30N 42°25' W 070°44'0 0.0
2014-Dec-17 05:06N 42°25' W 070°44'0 0.1
2014-Dec-17 04:30N 42°25' W 070°44'0 0.0
2014-Dec-17 03:30N 42°25' W 070°44'0 0.0
2014-Dec-17 02:33N 42°25' W 070°44'1 0.7
2014-Dec-17 01:33N 42°25' W 070°44'10 9.6
2014-Dec-17 00:33N 42°22' W 070°31'1812.1
2014-Dec-16 23:04N 42°20' W 070°07'711.7
2014-Dec-16 22:27N 42°18' W 069°57'1512.4
2014-Dec-16 21:16N 42°05' W 069°50'1012.8
2014-Dec-16 20:31N 41°56' W 069°44'1412.6
2014-Dec-16 19:23N 41°44' W 069°35'1112.6
2014-Dec-16 18:33N 41°34' W 069°29'1212.5
2014-Dec-16 17:33N 41°23' W 069°22'1212.3
2014-Dec-16 16:33N 41°11' W 069°16'1211.7
2014-Dec-16 15:31N 41°01' W 069°09'1111.5
2014-Dec-16 14:32N 40°51' W 069°01'1611.4
2014-Dec-16 13:09N 40°36' W 068°55'1012.1
2014-Dec-16 12:18N 40°26' W 068°56'912.3
2014-Dec-16 11:33N 40°16' W 068°56'1712.6
2014-Dec-16 10:15N 40°00' W 068°59'913.3
2014-Dec-16 09:33N 39°51' W 069°01'1414.1
2014-Dec-16 08:33N 39°37' W 069°05'23211.9
2014-Dec-15 13:05N 35°50' W 070°05'  

Dump ship's entire track history